Time;durP1;ratioP1;P1;durP2;ratioP2;P2;SDS_P1;SDS_P2;PMS_P1;PMS_P2;Temp;Humidity;BMP_temperature;BMP_pressure;BME280_temperature;BME280_humidity;BME280_pressure;Samples;Min_cycle;Max_cycle;Signal;HPM_P1;HPM_P2
2021/06/14 00:01:16;;;;;;;;;0.00;0.00;;;;;21.87;41.98;101800.06;5052099;28;47223;-80
2021/06/14 00:03:41;;;;;;;;;0.00;0.00;;;;;21.79;42.57;101795.84;5051632;28;45320;-80
2021/06/14 00:06:07;;;;;;;;;0.00;0.00;;;;;21.62;42.18;101766.16;5054557;28;45520;-80
2021/06/14 00:08:32;;;;;;;;;0.00;0.00;;;;;21.73;42.39;101795.06;5054649;28;45544;-80
2021/06/14 00:10:58;;;;;;;;;0.00;0.00;;;;;21.92;42.43;101829.13;5053841;28;46188;-81
2021/06/14 00:13:27;;;;;;;;;0.00;0.00;;;;;21.92;42.56;101826.50;5040120;28;46156;-80
2021/06/14 00:15:53;;;;;;;;;0.00;0.00;;;;;21.82;42.71;101806.38;5055592;28;45518;-81
2021/06/14 00:18:19;;;;;;;;;0.00;0.00;;;;;21.73;42.68;101789.78;5054231;28;45452;-80
2021/06/14 00:20:51;;;;;;;;;0.00;0.00;;;;;21.76;42.65;101799.44;5053638;28;46714;-80
2021/06/14 00:23:19;;;;;;;;;2.00;0.00;;;;;21.92;42.67;101825.63;5053671;28;45517;-80
2021/06/14 00:25:45;;;;;;;;;0.00;0.00;;;;;21.93;43.07;101838.81;5056291;28;46256;-79
2021/06/14 00:28:10;;;;;;;;;0.00;0.00;;;;;21.90;42.57;101829.16;5055711;28;45685;-79
2021/06/14 00:30:41;;;;;;;;;0.00;0.00;;;;;21.86;42.88;101832.78;5053821;28;45513;-79
2021/06/14 00:33:07;;;;;;;;;0.00;0.00;;;;;21.85;43.13;101833.72;5053622;28;45419;-79
2021/06/14 00:35:33;;;;;;;;;0.00;0.00;;;;;21.79;43.19;101839.13;5053991;28;45238;-79
2021/06/14 00:37:58;;;;;;;;;0.00;0.00;;;;;21.72;43.00;101834.84;5055281;28;45368;-79
2021/06/14 00:40:24;;;;;;;;;0.00;0.00;;;;;21.68;43.48;101841.97;5057040;28;46226;-79
2021/06/14 00:42:50;;;;;;;;;0.00;0.00;;;;;21.54;43.05;101814.91;5053818;28;45392;-80
2021/06/14 00:45:23;;;;;;;;;0.75;0.00;;;;;21.38;43.35;101786.94;5053750;28;45547;-79
2021/06/14 00:47:50;;;;;;;;;0.00;0.00;;;;;21.48;43.74;101802.66;5053675;28;45509;-79
2021/06/14 00:50:22;;;;;;;;;0.00;0.00;;;;;21.61;43.36;101825.34;5053644;28;46178;-79
2021/06/14 00:52:48;;;;;;;;;0.00;0.00;;;;;21.43;43.54;101809.81;5055134;28;45540;-79
2021/06/14 00:55:17;;;;;;;;;0.00;0.00;;;;;21.61;43.44;101830.63;5055335;28;45386;-79
2021/06/14 00:57:43;;;;;;;;;0.00;0.00;;;;;21.31;43.69;101779.19;5039203;28;45506;-79
2021/06/14 01:00:09;;;;;;;;;0.00;0.00;;;;;21.66;43.29;101827.91;5054938;28;46025;-79
2021/06/14 01:02:34;;;;;;;;;0.00;0.00;;;;;21.47;43.37;101790.31;5054645;28;45520;-79
2021/06/14 01:05:01;;;;;;;;;0.00;0.00;;;;;21.36;43.36;101770.22;5036340;28;45351;-79
2021/06/14 01:07:28;;;;;;;;;0.00;0.00;;;;;21.38;43.33;101775.50;5056295;28;45466;-79
2021/06/14 01:09:53;;;;;;;;;0.00;0.00;;;;;21.62;43.10;101813.84;5051531;28;45573;-79
2021/06/14 01:12:25;;;;;;;;;0.00;0.00;;;;;21.72;43.19;101825.13;5052850;28;45523;-78
2021/06/14 01:15:02;;;;;;;;;0.00;0.00;;;;;21.73;43.00;101818.03;5053394;28;45237;-78
2021/06/14 01:17:37;;;;;;;;;0.00;0.00;;;;;21.74;43.05;101823.31;5055029;28;45342;-79
2021/06/14 01:20:14;;;;;;;;;0.00;0.00;;;;;21.74;43.15;101818.00;5038705;28;46132;-78
2021/06/14 01:23:01;;;;;;;;;0.00;0.00;;;;;21.76;43.05;101824.19;5053006;28;45428;-78
2021/06/14 01:25:55;;;;;;;;;0.00;0.00;;;;;21.72;42.83;101813.66;5056722;28;45330;-79
2021/06/14 01:28:22;;;;;;;;;0.00;0.00;;;;;21.57;42.79;101781.28;5056090;28;45362;-80
2021/06/14 01:30:50;;;;;;;;;0.00;0.00;;;;;21.71;42.85;101807.47;5052685;28;46537;-79
2021/06/14 01:33:18;;;;;;;;;0.00;0.00;;;;;21.68;43.33;101802.22;5054675;28;45388;-79
2021/06/14 01:35:56;;;;;;;;;0.00;0.00;;;;;21.68;42.63;101806.69;5038012;28;45569;-79
2021/06/14 01:38:24;;;;;;;;;0.00;0.00;;;;;21.21;43.46;101723.75;5053110;28;45425;-78
2021/06/14 01:40:53;;;;;;;;;0.00;0.00;;;;;21.62;43.53;101797.09;5054551;28;48597;-79
2021/06/14 01:43:24;;;;;;;;;0.00;0.00;;;;;21.62;43.46;101797.09;5055089;28;46391;-79
2021/06/14 01:45:54;;;;;;;;;0.00;0.00;;;;;21.54;43.24;101785.75;5052310;28;45424;-79
2021/06/14 01:48:21;;;;;;;;;0.00;0.00;;;;;21.52;43.52;101784.03;5038263;28;45509;-80
2021/06/14 01:50:47;;;;;;;;;0.00;0.00;;;;;21.43;43.62;101786.84;5052615;28;45367;-79
2021/06/14 01:53:14;;;;;;;;;0.00;0.00;;;;;21.36;43.95;101775.53;5052932;28;45363;-79
2021/06/14 01:55:40;;;;;;;;;0.00;0.00;;;;;21.42;43.63;101781.59;5055410;28;45371;-77
2021/06/14 01:58:06;;;;;;;;;0.00;0.00;;;;;21.43;43.84;101770.06;5057505;28;45411;-78
2021/06/14 02:00:32;;;;;;;;;0.00;0.00;;;;;21.44;44.06;101772.69;5056024;28;45375;-79
2021/06/14 02:03:00;;;;;;;;;0.00;0.00;;;;;21.45;44.13;101773.56;5052107;28;45454;-79
2021/06/14 02:05:30;;;;;;;;;0.00;0.00;;;;;21.41;43.99;101770.13;5056867;28;45459;-79
2021/06/14 02:07:56;;;;;;;;;0.00;0.00;;;;;21.39;44.41;101769.28;5058202;28;45749;-79
2021/06/14 02:10:23;;;;;;;;;0.00;0.00;;;;;21.39;44.35;101766.63;5058839;28;46681;-78
2021/06/14 02:12:50;;;;;;;;;0.00;0.00;;;;;21.36;44.58;101769.34;5056093;28;45549;-78
2021/06/14 02:15:17;;;;;;;;;0.00;0.00;;;;;21.34;44.36;101763.19;5056147;28;45465;-79
2021/06/14 02:17:43;;;;;;;;;0.00;0.00;;;;;21.13;44.81;101742.44;5041375;28;45564;-79
2021/06/14 02:20:10;;;;;;;;;0.00;0.00;;;;;21.24;44.64;101750.16;5038735;28;47515;-79
2021/06/14 02:22:36;;;;;;;;;2.00;1.00;;;;;21.20;44.67;101748.50;5059487;28;45418;-78
2021/06/14 02:25:05;;;;;;;;;0.00;0.00;;;;;21.11;44.56;101748.66;5056894;28;45437;-79
2021/06/14 02:27:30;;;;;;;;;1.00;0.00;;;;;21.05;45.18;101743.47;5056130;28;45514;-78
2021/06/14 02:29:55;;;;;;;;;0.00;0.00;;;;;20.90;45.10;101716.41;5054341;28;46678;-79
2021/06/14 02:32:21;;;;;;;;;1.00;0.00;;;;;20.99;45.14;101729.47;5037713;28;45442;-79
2021/06/14 02:34:47;;;;;;;;;0.00;0.00;;;;;20.95;45.10;101740.16;5049984;28;45445;-79
2021/06/14 02:37:15;;;;;;;;;0.00;0.00;;;;;20.82;45.32;101716.53;5056269;28;45468;-79
2021/06/14 02:39:40;;;;;;;;;0.00;0.00;;;;;20.76;45.25;101706.06;5052067;28;46407;-79
2021/06/14 02:42:06;;;;;;;;;0.00;0.00;;;;;20.71;45.54;101714.09;5055610;28;45582;-79
2021/06/14 02:44:32;;;;;;;;;0.00;0.00;;;;;20.81;45.48;101732.44;5054770;28;45492;-80
2021/06/14 02:47:05;;;;;;;;;0.00;0.00;;;;;20.69;45.57;101722.94;5054227;28;45446;-81
2021/06/14 02:49:31;;;;;;;;;0.00;0.00;;;;;20.54;45.49;101698.53;5055028;28;45660;-80
2021/06/14 02:51:58;;;;;;;;;0.00;0.00;;;;;20.58;45.95;101707.28;5054769;28;45427;-80
2021/06/14 02:54:31;;;;;;;;;0.00;0.00;;;;;20.66;45.82;101729.16;5055128;28;45469;-80
2021/06/14 02:56:59;;;;;;;;;0.00;0.00;;;;;20.66;46.00;101726.53;5040339;28;45371;-80
2021/06/14 02:59:27;;;;;;;;;0.00;0.00;;;;;20.58;46.43;101718.72;5055516;28;45417;-80
2021/06/14 03:01:54;;;;;;;;;0.00;0.00;;;;;20.12;46.49;101664.84;5057425;28;45432;-80
2021/06/14 03:04:19;;;;;;;;;0.00;0.00;;;;;20.44;46.26;101724.25;5057960;28;45380;-80
2021/06/14 03:06:48;;;;;;;;;0.00;0.00;;;;;20.43;46.88;101722.50;5055968;28;45532;-81
2021/06/14 03:09:14;;;;;;;;;0.00;0.00;;;;;20.43;46.58;101725.13;5054033;28;46395;-81
2021/06/14 03:11:42;;;;;;;;;0.00;0.00;;;;;20.38;46.53;101716.44;5035286;28;46255;-81
2021/06/14 03:14:08;;;;;;;;;0.00;0.00;;;;;20.38;46.87;101719.06;5055713;28;45442;-81
2021/06/14 03:16:33;;;;;;;;;0.25;0.00;;;;;20.35;46.94;101712.06;5058022;28;45615;-81
2021/06/14 03:19:01;;;;;;;;;0.00;0.00;;;;;20.19;46.80;101687.69;5055486;28;45418;-80
2021/06/14 03:21:32;;;;;;;;;0.00;0.00;;;;;20.29;46.66;101722.75;5055330;28;45825;-81
2021/06/14 03:23:58;;;;;;;;;0.00;0.00;;;;;20.23;47.09;101723.72;5055293;28;45529;-81
2021/06/14 03:26:28;;;;;;;;;0.00;0.00;;;;;20.25;47.51;101727.19;5047916;28;45461;-82
2021/06/14 03:28:55;;;;;;;;;0.00;0.00;;;;;20.11;47.27;101705.41;5046587;28;46167;-81
2021/06/14 03:31:21;;;;;;;;;0.00;0.00;;;;;20.16;47.55;101724.72;5058013;28;45466;-82
2021/06/14 03:33:50;;;;;;;;;0.00;0.00;;;;;20.07;47.52;101717.81;5052621;28;45492;-81
2021/06/14 03:36:16;;;;;;;;;0.00;0.00;;;;;20.17;47.54;101723.81;5047078;28;45532;-82
2021/06/14 03:38:50;;;;;;;;;0.00;0.00;;;;;19.97;47.40;101706.47;5049482;28;46576;-80
2021/06/14 03:41:17;;;;;;;;;0.00;0.00;;;;;20.17;47.72;101736.16;5051397;28;46081;-80
2021/06/14 03:43:42;;;;;;;;;0.25;0.00;;;;;19.87;47.26;101687.25;5049276;28;45519;-81
2021/06/14 03:46:09;;;;;;;;;0.00;0.00;;;;;19.80;47.62;101679.44;5052632;28;45562;-80
2021/06/14 03:48:35;;;;;;;;;0.00;0.00;;;;;20.16;47.67;101737.94;5038594;28;48392;-80
2021/06/14 03:51:01;;;;;;;;;0.00;0.00;;;;;19.67;47.25;101663.78;5038382;28;46313;-80
2021/06/14 03:53:32;;;;;;;;;0.00;0.00;;;;;19.91;47.51;101751.50;5053847;28;45555;-80
2021/06/14 03:55:59;;;;;;;;;0.00;0.00;;;;;19.74;47.64;101735.88;5045458;28;45605;-82
2021/06/14 03:58:25;;;;;;;;;0.00;0.00;;;;;19.83;47.95;101750.72;5039403;28;47623;-81
2021/06/14 04:00:50;;;;;;;;;0.00;0.00;;;;;19.77;48.08;101729.66;5054073;28;45432;-80
2021/06/14 04:03:16;;;;;;;;;0.00;0.00;;;;;19.93;48.05;101743.53;5054364;28;45481;-80
2021/06/14 04:05:41;;;;;;;;;0.00;0.00;;;;;19.86;48.01;101738.34;5039026;28;45497;-81
2021/06/14 04:08:06;;;;;;;;;0.00;0.00;;;;;19.58;47.76;101683.28;5037158;28;48261;-81
2021/06/14 04:10:32;;;;;;;;;0.00;0.00;;;;;19.88;48.15;101715.41;5057712;28;45484;-80
2021/06/14 04:12:57;;;;;;;;;0.00;0.00;;;;;20.06;48.30;101741.63;5054033;28;45338;-80
2021/06/14 04:15:22;;;;;;;;;0.00;0.00;;;;;20.10;48.59;101745.97;5050114;28;45499;-81
2021/06/14 04:17:48;;;;;;;;;0.00;0.00;;;;;19.94;48.00;101703.00;5048834;28;45501;-81
2021/06/14 04:20:14;;;;;;;;;0.50;0.50;;;;;19.88;47.77;101688.13;5053535;28;50787;-80
2021/06/14 04:22:39;;;;;;;;;0.00;0.00;;;;;20.07;47.78;101714.28;5056836;28;45419;-80
2021/06/14 04:25:05;;;;;;;;;0.00;0.00;;;;;20.29;47.68;101749.19;5055011;28;45395;-81
2021/06/14 04:27:31;;;;;;;;;0.00;0.00;;;;;20.33;47.70;101752.63;5038666;28;47039;-81
2021/06/14 04:29:56;;;;;;;;;0.00;0.00;;;;;19.96;47.51;101691.53;5038546;28;45676;-81
2021/06/14 04:32:21;;;;;;;;;0.00;0.00;;;;;20.10;47.45;101711.59;5055258;28;45216;-81
2021/06/14 04:34:49;;;;;;;;;0.00;0.00;;;;;20.43;47.30;101750.72;5056745;28;45466;-81
2021/06/14 04:37:14;;;;;;;;;0.00;0.00;;;;;20.40;47.48;101745.50;5057263;28;46623;-81
2021/06/14 04:39:39;;;;;;;;;0.00;0.00;;;;;20.49;47.24;101764.72;5037733;28;45453;-81
2021/06/14 04:42:05;;;;;;;;;0.00;0.00;;;;;20.46;47.07;101745.41;5053254;28;45524;-81
2021/06/14 04:44:32;;;;;;;;;0.00;0.00;;;;;20.58;47.40;101761.03;5056034;28;45525;-81
2021/06/14 04:46:57;;;;;;;;;0.00;0.00;;;;;20.52;47.27;101763.78;5054465;28;45515;-81
2021/06/14 04:49:23;;;;;;;;;0.00;0.00;;;;;20.54;47.14;101764.63;5055119;28;45367;-81
2021/06/14 04:51:48;;;;;;;;;0.00;0.00;;;;;20.57;47.23;101777.81;5053682;28;45420;-81
2021/06/14 04:54:13;;;;;;;;;0.00;0.00;;;;;20.55;46.87;101763.72;5048982;28;45591;-81
2021/06/14 04:56:39;;;;;;;;;0.00;0.00;;;;;20.49;46.98;101755.94;5053421;28;46108;-81
2021/06/14 04:59:04;;;;;;;;;0.25;0.00;;;;;19.50;47.25;101613.84;5054502;28;51628;-81
2021/06/14 05:01:30;;;;;;;;;0.50;0.50;;;;;20.16;47.16;101735.31;5057577;28;45466;-81
2021/06/14 05:03:55;;;;;;;;;0.00;0.00;;;;;20.23;47.28;101758.09;5054449;28;45555;-81
2021/06/14 05:06:21;;;;;;;;;2.25;0.00;;;;;20.11;47.11;101747.69;5049938;28;46166;-81
2021/06/14 05:08:46;;;;;;;;;0.00;0.00;;;;;19.96;47.24;101727.63;5049365;28;45521;-81
2021/06/14 05:11:12;;;;;;;;;0.00;0.00;;;;;19.93;47.27;101720.63;5055613;28;45465;-81
2021/06/14 05:13:37;;;;;;;;;1.00;0.00;;;;;20.28;47.53;101789.75;5057323;28;47476;-80
2021/06/14 05:16:03;;;;;;;;;0.00;0.00;;;;;20.36;47.48;101792.25;5054609;28;45249;-82
2021/06/14 05:18:28;;;;;;;;;0.00;0.00;;;;;20.00;47.59;101732.88;5041592;28;45598;-81
2021/06/14 05:20:53;;;;;;;;;0.50;0.00;;;;;20.18;47.97;101782.84;5044250;28;45384;-81
2021/06/14 05:23:19;;;;;;;;;0.00;0.00;;;;;20.21;48.27;101802.16;5051837;28;45351;-81
2021/06/14 05:25:44;;;;;;;;;0.00;0.00;;;;;20.03;48.68;101774.22;5052888;28;46120;-81
2021/06/14 05:28:09;;;;;;;;;1.00;1.00;;;;;20.31;48.33;101799.41;5056222;28;45472;-81
2021/06/14 05:30:35;;;;;;;;;0.75;0.00;;;;;20.37;48.23;101808.09;5049228;28;45768;-81
2021/06/14 05:33:00;;;;;;;;;0.00;0.00;;;;;20.13;48.24;101757.34;5053047;28;45358;-82
2021/06/14 05:35:26;;;;;;;;;0.25;0.25;;;;;19.97;47.98;101717.03;5053037;28;45446;-81
2021/06/14 05:37:51;;;;;;;;;0.25;0.25;;;;;20.54;47.56;101800.78;5054702;28;45323;-81
2021/06/14 05:40:17;;;;;;;;;0.00;0.00;;;;;20.51;47.71;101789.38;5056786;28;45499;-81
2021/06/14 05:42:43;;;;;;;;;0.00;0.00;;;;;20.42;47.57;101756.94;5038189;28;45583;-81
2021/06/14 05:45:09;;;;;;;;;0.00;0.00;;;;;20.82;47.06;101792.41;5037904;28;48404;-81
2021/06/14 05:47:35;;;;;;;;;0.00;0.00;;;;;20.79;47.08;101766.00;5053098;28;45403;-81
2021/06/14 05:50:03;;;;;;;;;0.00;0.00;;;;;21.08;46.63;101793.72;5053803;28;45255;-81
2021/06/14 05:52:29;;;;;;;;;0.00;0.00;;;;;21.15;46.60;101798.00;5055728;28;45312;-80
2021/06/14 05:54:54;;;;;;;;;0.00;0.00;;;;;21.21;46.27;101789.94;5052757;28;49051;-80
2021/06/14 05:57:19;;;;;;;;;0.00;0.00;;;;;20.95;46.27;101746.28;5052831;28;45312;-80
2021/06/14 05:59:45;;;;;;;;;0.00;0.00;;;;;21.33;45.55;101793.25;5052747;28;45465;-80
2021/06/14 06:02:10;;;;;;;;;0.75;0.75;;;;;21.44;45.57;101796.53;5044497;28;45783;-80
2021/06/14 06:04:35;;;;;;;;;0.00;0.00;;;;;21.44;45.36;101791.22;5055996;28;46448;-81
2021/06/14 06:07:01;;;;;;;;;0.00;0.00;;;;;21.64;44.92;101805.84;5054665;28;45394;-79
2021/06/14 06:09:27;;;;;;;;;0.00;0.00;;;;;21.56;44.91;101811.31;5052778;28;45485;-80
2021/06/14 06:11:52;;;;;;;;;0.00;0.00;;;;;21.52;44.98;101786.66;5036696;28;45517;-80
2021/06/14 06:14:18;;;;;;;;;0.25;0.00;;;;;21.72;44.82;101803.94;5051796;28;45993;-80
2021/06/14 06:16:43;;;;;;;;;0.00;0.00;;;;;21.87;44.70;101810.69;5055141;28;45379;-80
2021/06/14 06:19:09;;;;;;;;;0.00;0.00;;;;;21.99;44.42;101801.59;5054901;28;45271;-80
2021/06/14 06:21:34;;;;;;;;;1.00;0.00;;;;;22.11;44.07;101804.88;5038922;28;45379;-80
2021/06/14 06:24:00;;;;;;;;;1.00;0.00;;;;;22.22;43.92;101788.69;5043829;28;45473;-81
2021/06/14 06:26:25;;;;;;;;;0.00;0.00;;;;;22.12;44.02;101764.19;5051708;28;45209;-80
2021/06/14 06:28:51;;;;;;;;;0.25;0.00;;;;;22.00;44.04;101744.16;5052519;28;45534;-80
2021/06/14 06:31:17;;;;;;;;;2.00;0.00;;;;;22.16;43.81;101765.88;5053508;28;45431;-80
2021/06/14 06:33:43;;;;;;;;;0.00;0.00;;;;;22.13;43.29;101750.03;5052157;28;46150;-81
2021/06/14 06:36:12;;;;;;;;;0.00;0.00;;;;;22.42;43.73;101787.34;5051481;28;45503;-80
2021/06/14 06:38:37;;;;;;;;;0.00;0.00;;;;;22.40;43.38;101790.03;5052123;28;45433;-80
2021/06/14 06:41:04;;;;;;;;;0.25;0.00;;;;;22.35;42.81;101781.31;5037111;28;45391;-80
2021/06/14 06:43:29;;;;;;;;;0.00;0.00;;;;;22.30;42.28;101764.66;5056378;28;46682;-80
2021/06/14 06:45:54;;;;;;;;;0.00;0.00;;;;;22.44;42.47;101780.22;5056658;28;45436;-80
2021/06/14 06:48:20;;;;;;;;;0.00;0.00;;;;;22.40;43.16;101780.31;5050388;28;45541;-79
2021/06/14 06:50:45;;;;;;;;;0.00;0.00;;;;;22.19;42.70;101760.50;5054679;28;45371;-78
2021/06/14 06:53:10;;;;;;;;;0.00;0.00;;;;;22.33;43.01;101764.59;5051060;28;46746;-79
2021/06/14 06:55:36;;;;;;;;;0.00;0.00;;;;;22.42;42.97;101777.63;5039920;28;46077;-79
2021/06/14 06:58:03;;;;;;;;;0.00;0.00;;;;;22.36;42.08;101783.09;5054795;28;45466;-87
2021/06/14 07:00:29;;;;;;;;;0.00;0.00;;;;;22.26;41.90;101753.25;5047548;28;45456;-80
2021/06/14 07:02:55;;;;;;;;;0.00;0.00;;;;;22.22;42.33;101733.91;5051757;28;46292;-79
2021/06/14 07:05:20;;;;;;;;;0.00;0.00;;;;;22.60;42.68;101776.31;5048022;28;51802;-79
2021/06/14 07:07:45;;;;;;;;;0.25;0.25;;;;;22.61;42.17;101770.09;5052481;28;45781;-79
2021/06/14 07:10:11;;;;;;;;;0.00;0.00;;;;;22.56;43.13;101773.72;5038338;28;45585;-79
2021/06/14 07:12:37;;;;;;;;;0.00;0.00;;;;;22.43;43.10;101747.53;5043872;28;48595;-80
2021/06/14 07:15:13;;;;;;;;;2.75;0.00;;;;;22.60;42.96;101770.16;5052282;28;45512;-79
2021/06/14 07:17:41;;;;;;;;;0.00;0.00;;;;;22.62;42.83;101760.34;5051878;28;45493;-79
2021/06/14 07:20:08;;;;;;;;;0.00;0.00;;;;;22.71;42.43;101761.88;5051114;28;45596;-80
2021/06/14 07:22:33;;;;;;;;;0.00;0.00;;;;;22.69;42.37;101747.81;5058157;28;45375;-79
2021/06/14 07:24:59;;;;;;;;;1.00;0.00;;;;;22.79;42.32;101751.97;5034789;28;45426;-80
2021/06/14 07:27:24;;;;;;;;;1.25;1.25;;;;;22.99;42.36;101755.81;5051240;28;45494;-79
2021/06/14 07:29:49;;;;;;;;;1.75;0.00;;;;;22.72;41.41;101706.13;5053771;28;45506;-79
2021/06/14 07:32:15;;;;;;;;;0.00;0.00;;;;;23.20;41.04;101770.28;5051552;28;51613;-80
2021/06/14 07:34:40;;;;;;;;;0.00;0.00;;;;;23.24;41.26;101769.28;5037573;28;45793;-79
2021/06/14 07:37:06;;;;;;;;;0.00;0.00;;;;;23.23;40.65;101753.41;5054401;28;45590;-79
2021/06/14 07:39:31;;;;;;;;;1.75;1.75;;;;;23.21;40.78;101739.31;5039014;28;45438;-79
2021/06/14 07:41:56;;;;;;;;;0.00;0.00;;;;;23.21;40.25;101742.81;5052224;28;48486;-80
2021/06/14 07:44:22;;;;;;;;;0.00;0.00;;;;;23.35;40.21;101769.00;5054920;28;45415;-81
2021/06/14 07:46:47;;;;;;;;;2.00;0.00;;;;;23.14;40.46;101720.00;5056928;28;45398;-81
2021/06/14 07:49:12;;;;;;;;;0.00;0.00;;;;;23.57;40.65;101772.81;5055776;28;45363;-81
2021/06/14 07:51:38;;;;;;;;;1.00;0.00;;;;;23.27;40.42;101697.50;5053783;28;48563;-81
2021/06/14 07:54:03;;;;;;;;;0.25;0.00;;;;;23.58;40.47;101727.59;5037925;28;45478;-82
2021/06/14 07:56:29;;;;;;;;;0.00;0.00;;;;;23.59;40.26;101710.75;5038183;28;45334;-82
2021/06/14 07:58:54;;;;;;;;;0.00;0.00;;;;;23.75;39.59;101750.13;5032740;28;45490;-84
2021/06/14 08:01:20;;;;;;;;;0.00;0.00;;;;;23.72;39.60;101745.78;5032490;28;47072;-79
2021/06/14 08:03:48;;;;;;;;;4.50;0.00;;;;;23.76;39.80;101742.09;5024802;28;45696;-79
2021/06/14 08:06:14;;;;;;;;;0.00;0.00;;;;;23.86;39.94;101739.16;5051630;28;45603;-79
2021/06/14 08:08:39;;;;;;;;;0.00;0.00;;;;;23.99;39.46;101750.28;5053987;28;45428;-79
2021/06/14 08:11:07;;;;;;;;;0.00;0.00;;;;;23.99;39.88;101743.19;5047976;28;45889;-79
2021/06/14 08:13:32;;;;;;;;;1.50;0.00;;;;;23.99;39.62;101729.88;5048334;28;45513;-79
2021/06/14 08:15:59;;;;;;;;;0.25;0.25;;;;;24.08;39.34;101727.84;5053877;28;45389;-78
2021/06/14 08:18:46;;;;;;;;;0.00;0.00;;;;;23.95;40.04;101692.81;5033970;28;45442;-78
2021/06/14 08:21:26;;;;;;;;;2.00;0.00;;;;;24.19;39.79;101717.72;5050744;28;45569;-79
2021/06/14 08:26:35;;;;;;;;;0.00;0.00;;;;;24.49;39.41;101712.28;5053513;28;45456;-81
2021/06/14 08:29:02;;;;;;;;;0.00;0.00;;;;;24.52;38.69;101712.19;5052981;28;45419;-81
2021/06/14 08:31:30;;;;;;;;;0.00;0.00;;;;;24.57;38.86;101717.34;5054775;28;46033;-80
2021/06/14 08:33:55;;;;;;;;;0.00;0.00;;;;;24.68;39.02;101723.16;5030224;28;45453;-80
2021/06/14 08:36:21;;;;;;;;;0.50;0.50;;;;;24.76;38.95;101720.22;5046718;28;47166;-80
2021/06/14 08:38:47;;;;;;;;;0.00;0.00;;;;;24.87;38.72;101717.19;5042047;28;45760;-78
2021/06/14 08:41:16;;;;;;;;;0.00;0.00;;;;;24.98;38.65;101718.59;5041492;28;45582;-79
2021/06/14 08:43:42;;;;;;;;;0.00;0.00;;;;;25.05;38.39;101717.44;5046436;28;45708;-79
2021/06/14 08:46:08;;;;;;;;;1.00;1.00;;;;;25.09;38.43;101723.53;5049014;28;45389;-80
2021/06/14 08:48:34;;;;;;;;;0.00;0.00;;;;;25.10;37.78;101709.28;5041340;28;45462;-80
2021/06/14 08:51:00;;;;;;;;;0.00;0.00;;;;;24.85;36.87;101656.91;5044171;28;46721;-80
2021/06/14 08:53:25;;;;;;;;;0.00;0.00;;;;;25.10;36.45;101675.53;5046488;28;45495;-79
2021/06/14 08:55:51;;;;;;;;;0.00;0.00;;;;;25.31;36.79;101699.59;5051570;28;45396;-79
2021/06/14 08:58:17;;;;;;;;;0.00;0.00;;;;;25.30;36.89;101695.22;5050565;28;45451;-81
2021/06/14 09:00:42;;;;;;;;;0.00;0.00;;;;;25.04;36.80;101631.34;5042818;28;46071;-85
2021/06/14 09:03:08;;;;;;;;;0.00;0.00;;;;;25.48;35.85;101698.09;5033702;28;45614;-77
2021/06/14 09:05:33;;;;;;;;;0.00;0.00;;;;;25.43;35.41;101685.81;5053288;28;45581;-80
2021/06/14 09:08:05;;;;;;;;;1.00;1.00;;;;;25.42;35.50;101661.91;5044878;28;45399;-82
2021/06/14 09:10:38;;;;;;;;;0.00;0.00;;;;;25.72;35.38;101695.41;5050744;28;46609;-81
2021/06/14 09:13:25;;;;;;;;;0.00;0.00;;;;;25.74;34.05;101699.75;5049505;28;45487;-79
2021/06/14 09:16:04;;;;;;;;;0.00;0.00;;;;;25.47;33.77;101643.03;5042315;28;45501;-82
2021/06/14 09:18:30;;;;;;;;;0.00;0.00;;;;;25.80;33.59;101695.94;5049151;28;45660;-80
2021/06/14 09:20:59;;;;;;;;;0.00;0.00;;;;;25.89;33.96;101692.03;5044023;28;45530;-80
2021/06/14 09:23:37;;;;;;;;;0.00;0.00;;;;;25.64;32.64;101653.06;5045810;28;51489;-82
2021/06/14 09:26:02;;;;;;;;;0.00;0.00;;;;;25.83;33.63;101679.84;5048702;28;45383;-85
2021/06/14 09:28:27;;;;;;;;;0.00;0.00;;;;;25.77;32.24;101672.97;5039214;28;45811;-79
2021/06/14 09:30:53;;;;;;;;;0.00;0.00;;;;;25.97;32.75;101689.91;5036864;28;46976;-80
2021/06/14 09:33:22;;;;;;;;;0.00;0.00;;;;;25.99;32.33;101685.38;5053740;28;45474;-84
2021/06/14 09:35:50;;;;;;;;;0.00;0.00;;;;;25.90;31.32;101665.31;5054454;28;45431;-82
2021/06/14 09:38:19;;;;;;;;;0.00;0.00;;;;;26.11;32.77;101691.13;5049845;28;45610;-81
2021/06/14 09:40:48;;;;;;;;;0.00;0.00;;;;;26.06;32.91;101678.88;5046376;28;45598;-79
2021/06/14 09:43:28;;;;;;;;;0.50;0.00;;;;;25.91;32.27;101660.84;5043118;28;45477;-81
2021/06/14 09:45:55;;;;;;;;;0.00;0.00;;;;;25.93;32.54;101680.31;5053862;28;45546;-80
2021/06/14 09:48:23;;;;;;;;;0.00;0.00;;;;;25.92;32.23;101678.59;5046882;28;45466;-79
2021/06/14 09:50:51;;;;;;;;;0.00;0.00;;;;;25.98;32.44;101675.66;5045845;28;46084;-80
2021/06/14 09:53:19;;;;;;;;;0.25;0.25;;;;;25.83;32.74;101649.63;5046961;28;45445;-81
2021/06/14 09:55:47;;;;;;;;;0.00;0.00;;;;;26.07;32.37;101669.06;5044265;28;45443;-81
2021/06/14 09:58:21;;;;;;;;;3.00;0.00;;;;;26.19;32.36;101679.19;5051201;28;45710;-79
2021/06/14 10:00:56;;;;;;;;;0.00;0.00;;;;;26.27;31.09;101667.31;5040923;28;45374;-79
2021/06/14 10:03:25;;;;;;;;;0.00;0.00;;;;;26.26;30.85;101674.47;5046273;28;45502;-78
2021/06/14 10:05:52;;;;;;;;;0.00;0.00;;;;;26.23;31.59;101661.28;5043348;28;45788;-78
2021/06/14 10:08:27;;;;;;;;;0.00;0.00;;;;;26.37;31.94;101686.53;5050889;28;45598;-79
2021/06/14 10:11:08;;;;;;;;;0.00;0.00;;;;;26.23;30.97;101655.94;5042478;28;46170;-79
2021/06/14 10:13:36;;;;;;;;;0.00;0.00;;;;;26.45;30.56;101676.38;5045260;28;45438;-81
2021/06/14 10:16:12;;;;;;;;;1.00;0.00;;;;;26.42;30.74;101663.16;5045891;28;45514;-79
2021/06/14 10:18:42;;;;;;;;;0.00;0.00;;;;;26.31;30.25;101640.47;5044408;28;45585;-82
2021/06/14 10:21:29;;;;;;;;;0.00;0.00;;;;;26.53;29.65;101679.59;5048763;28;45469;-79
2021/06/14 10:23:56;;;;;;;;;0.00;0.00;;;;;26.19;29.55;101617.84;5035954;28;45455;-81
2021/06/14 10:26:23;;;;;;;;;0.00;0.00;;;;;26.57;28.47;101682.97;5050234;28;45790;-81
2021/06/14 10:28:49;;;;;;;;;0.00;0.00;;;;;26.59;28.60;101678.44;5054894;28;45549;-80
2021/06/14 10:31:15;;;;;;;;;0.00;0.00;;;;;26.27;27.60;101619.28;5051563;28;47110;-82
2021/06/14 10:33:42;;;;;;;;;0.50;0.00;;;;;26.62;28.13;101675.63;5055478;28;45471;-82
2021/06/14 10:36:09;;;;;;;;;0.00;0.00;;;;;26.06;28.00;101584.63;5049290;28;45593;-82
2021/06/14 10:38:38;;;;;;;;;0.00;0.00;;;;;26.67;28.16;101678.97;5046063;28;45490;-81
2021/06/14 10:41:05;;;;;;;;;0.00;0.00;;;;;26.68;27.84;101679.84;5050236;28;45708;-83
2021/06/14 10:43:31;;;;;;;;;1.00;0.00;;;;;26.39;27.95;101636.59;5046015;28;45306;-84
2021/06/14 10:45:57;;;;;;;;;0.00;0.00;;;;;26.53;27.49;101657.34;5045908;28;45445;-79
2021/06/14 10:48:29;;;;;;;;;0.00;0.00;;;;;26.67;28.38;101678.06;5050837;28;45573;-80
2021/06/14 10:50:55;;;;;;;;;0.00;0.00;;;;;26.77;28.08;101678.56;5051836;28;45446;-78
2021/06/14 10:53:26;;;;;;;;;0.00;0.00;;;;;26.63;28.84;101649.78;5057094;28;46031;-79
2021/06/14 10:55:52;;;;;;;;;0.00;0.00;;;;;26.64;28.36;101640.88;5051945;28;45480;-80
2021/06/14 10:58:19;;;;;;;;;0.00;0.00;;;;;26.78;28.02;101646.44;5052789;28;45609;-82
2021/06/14 11:00:45;;;;;;;;;0.00;0.00;;;;;26.93;28.50;101649.31;5029229;28;47128;-81
2021/06/14 11:03:13;;;;;;;;;1.00;0.00;;;;;26.66;28.10;101594.47;5030515;28;45589;-80
2021/06/14 11:05:51;;;;;;;;;0.00;0.00;;;;;27.14;28.09;101655.50;5015060;28;45486;-82
2021/06/14 11:08:22;;;;;;;;;0.50;0.00;;;;;27.03;27.45;101634.63;5029941;28;45656;-80
2021/06/14 11:11:04;;;;;;;;;1.00;0.00;;;;;27.12;28.16;101664.50;5015756;28;46064;-82
2021/06/14 11:13:30;;;;;;;;;2.00;0.00;;;;;27.14;27.85;101652.84;5010485;28;45514;-83
2021/06/14 11:16:02;;;;;;;;;0.00;0.00;;;;;27.19;28.04;101650.81;5012667;28;45509;-83
2021/06/14 11:18:32;;;;;;;;;0.50;0.50;;;;;27.36;27.84;101662.50;5008382;28;45589;-81
2021/06/14 11:21:08;;;;;;;;;0.00;0.00;;;;;27.38;27.97;101665.09;5008948;28;45427;-81
2021/06/14 11:23:34;;;;;;;;;0.00;0.00;;;;;27.32;28.16;101653.75;5015132;28;45391;-81
2021/06/14 11:25:59;;;;;;;;;0.00;0.00;;;;;27.34;27.81;101664.38;5015563;28;45509;-81
2021/06/14 11:28:33;;;;;;;;;0.00;0.00;;;;;27.30;27.49;101660.09;5015787;28;45355;-81